Anatife — FGE8389 — position and weather

sailwx.info

Track history (hours):
 
Tides and Currents Weather Stations Pressure Air Temp Water Temp Dewpoint Dewpoint Depression Visibility Wind Speed Wind Dir Waves Ship Positions

Anatife

Last reported at 2018-Apr-19 14:11 UTC. Time now 2018-Apr-21 13:38 UTC.
Position N 47°18' W 002°05'.

Length 41 m; draft 2 m.

Type: Tanker. MMSI: 227681520.

Date/timePositionNaut miles runAvg speedWind from/ knotsBaromVisibWave heightAir tempDewpointWater temp
2018-Apr-19 14:11N 47°18' W 002°05'1 2.7
2018-Apr-19 13:59N 47°18' W 002°06'6 9.5
2018-Apr-19 13:23N 47°15' W 002°13'4 9.6
2018-Apr-19 13:00N 47°13' W 002°17'1110.0
2018-Apr-19 11:53N 47°04' W 002°26'910.4
2018-Apr-19 11:00N 46°55' W 002°28'610.4
2018-Apr-19 10:27N 46°49' W 002°24'6 0.5
2018-Apr-18 20:32N 46°44' W 002°21'0 0.4
2018-Apr-18 20:27N 46°44' W 002°21'5 7.2
2018-Apr-18 19:47N 46°48' W 002°23'3 9.5
2018-Apr-18 19:30N 46°50' W 002°25'5 9.7
2018-Apr-18 19:00N 46°55' W 002°29'5 9.8
2018-Apr-18 18:30N 46°59' W 002°28'5 9.2
2018-Apr-18 18:00N 47°04' W 002°26'5 9.4
2018-Apr-18 17:30N 47°07' W 002°21'5 9.4
2018-Apr-18 17:00N 47°11' W 002°18'4 8.5
2018-Apr-18 16:29N 47°15' W 002°14'4 7.8
2018-Apr-18 16:00N 47°17' W 002°10'3 6.6
2018-Apr-18 15:30N 47°18' W 002°05'  
2018-Apr-13 18:23N 47°18' W 002°05'1 2.3
2018-Apr-13 18:00N 47°18' W 002°06'3 6.6
2018-Apr-13 17:30N 47°17' W 002°11'8 7.7
2018-Apr-13 16:30N 47°12' W 002°20'5 9.5
2018-Apr-13 16:00N 47°13' W 002°27'510.1
2018-Apr-13 15:30N 47°14' W 002°34'510.0
2018-Apr-13 15:00N 47°15' W 002°42'5 9.7
2018-Apr-13 14:30N 47°16' W 002°48'5 9.9
2018-Apr-13 14:00N 47°18' W 002°55'10 9.9
2018-Apr-13 13:00N 47°21' W 003°09'0 0.0
2018-Apr-12 14:54N 47°21' W 003°09'1 2.2
2018-Apr-12 14:30N 47°21' W 003°08'0 0.1
2018-Apr-12 14:00N 47°21' W 003°08'0 0.5
2018-Apr-12 13:30N 47°21' W 003°08'2 3.7
2018-Apr-12 13:00N 47°20' W 003°05'2 4.6
2018-Apr-12 12:30N 47°20' W 003°02'2 3.9
2018-Apr-12 12:00N 47°19' W 002°59'3 6.7
2018-Apr-12 11:30N 47°18' W 002°54'4 8.9
2018-Apr-12 11:00N 47°16' W 002°48'4 8.5
2018-Apr-12 10:31N 47°15' W 002°42'4 8.5
2018-Apr-12 10:00N 47°14' W 002°36'4 8.8
2018-Apr-12 09:31N 47°14' W 002°30'4 9.0
2018-Apr-12 09:01N 47°13' W 002°23'4 8.7
2018-Apr-12 08:30N 47°13' W 002°17'510.1
2018-Apr-12 08:01N 47°16' W 002°11'5 9.3
2018-Apr-12 07:31N 47°18' W 002°05'0 0.0
2018-Apr-12 07:01N 47°18' W 002°05'  
Track history (hours):
 
Tides and Currents Weather Stations Pressure Air Temp Water Temp Dewpoint Dewpoint Depression Visibility Wind Speed Wind Dir Waves Ship Positions

Anatife

Last reported at 2018-Apr-19 14:11 UTC. Time now 2018-Apr-21 13:38 UTC.
Position N 47°18' W 002°05'.

Length 41 m; draft 2 m.

Type: Tanker. MMSI: 227681520.

Date/timePositionNaut miles runAvg speedWind from/ knotsBaromVisibWave heightAir tempDewpointWater temp
2018-Apr-19 14:11N 47°18' W 002°05'1 2.7
2018-Apr-19 13:59N 47°18' W 002°06'6 9.5
2018-Apr-19 13:23N 47°15' W 002°13'4 9.6
2018-Apr-19 13:00N 47°13' W 002°17'1110.0
2018-Apr-19 11:53N 47°04' W 002°26'910.4
2018-Apr-19 11:00N 46°55' W 002°28'610.4
2018-Apr-19 10:27N 46°49' W 002°24'6 0.5
2018-Apr-18 20:32N 46°44' W 002°21'0 0.4
2018-Apr-18 20:27N 46°44' W 002°21'5 7.2
2018-Apr-18 19:47N 46°48' W 002°23'3 9.5
2018-Apr-18 19:30N 46°50' W 002°25'5 9.7
2018-Apr-18 19:00N 46°55' W 002°29'5 9.8
2018-Apr-18 18:30N 46°59' W 002°28'5 9.2
2018-Apr-18 18:00N 47°04' W 002°26'5 9.4
2018-Apr-18 17:30N 47°07' W 002°21'5 9.4
2018-Apr-18 17:00N 47°11' W 002°18'4 8.5
2018-Apr-18 16:29N 47°15' W 002°14'4 7.8
2018-Apr-18 16:00N 47°17' W 002°10'3 6.6
2018-Apr-18 15:30N 47°18' W 002°05'  
2018-Apr-13 18:23N 47°18' W 002°05'1 2.3
2018-Apr-13 18:00N 47°18' W 002°06'3 6.6
2018-Apr-13 17:30N 47°17' W 002°11'8 7.7
2018-Apr-13 16:30N 47°12' W 002°20'5 9.5
2018-Apr-13 16:00N 47°13' W 002°27'510.1
2018-Apr-13 15:30N 47°14' W 002°34'510.0
2018-Apr-13 15:00N 47°15' W 002°42'5 9.7
2018-Apr-13 14:30N 47°16' W 002°48'5 9.9
2018-Apr-13 14:00N 47°18' W 002°55'10 9.9
2018-Apr-13 13:00N 47°21' W 003°09'0 0.0
2018-Apr-12 14:54N 47°21' W 003°09'1 2.2
2018-Apr-12 14:30N 47°21' W 003°08'0 0.1
2018-Apr-12 14:00N 47°21' W 003°08'0 0.5
2018-Apr-12 13:30N 47°21' W 003°08'2 3.7
2018-Apr-12 13:00N 47°20' W 003°05'2 4.6
2018-Apr-12 12:30N 47°20' W 003°02'2 3.9
2018-Apr-12 12:00N 47°19' W 002°59'3 6.7
2018-Apr-12 11:30N 47°18' W 002°54'4 8.9
2018-Apr-12 11:00N 47°16' W 002°48'4 8.5
2018-Apr-12 10:31N 47°15' W 002°42'4 8.5
2018-Apr-12 10:00N 47°14' W 002°36'4 8.8
2018-Apr-12 09:31N 47°14' W 002°30'4 9.0
2018-Apr-12 09:01N 47°13' W 002°23'4 8.7
2018-Apr-12 08:30N 47°13' W 002°17'510.1
2018-Apr-12 08:01N 47°16' W 002°11'5 9.3
2018-Apr-12 07:31N 47°18' W 002°05'0 0.0
2018-Apr-12 07:01N 47°18' W 002°05'  

Dump ship's entire track history